sensor_id;sensor_type;location;lat;lon;timestamp;pressure;altitude;pressure_sealevel;temperature;humidity
24962;BME280;12992;50.884;13.668;2024-03-29T00:00:36;95802.34;;;6.41;79.75
24962;BME280;12992;50.884;13.668;2024-03-29T00:03:01;95798.03;;;6.40;79.43
24962;BME280;12992;50.884;13.668;2024-03-29T00:05:26;95795.84;;;6.37;79.77
24962;BME280;12992;50.884;13.668;2024-03-29T00:07:52;95803.97;;;6.42;79.23
24962;BME280;12992;50.884;13.668;2024-03-29T00:10:17;95803.44;;;6.50;78.60
24962;BME280;12992;50.884;13.668;2024-03-29T00:12:42;95801.28;;;6.47;79.07
24962;BME280;12992;50.884;13.668;2024-03-29T00:15:08;95796.66;;;6.38;79.67
24962;BME280;12992;50.884;13.668;2024-03-29T00:17:33;95802.88;;;6.38;79.14
24962;BME280;12992;50.884;13.668;2024-03-29T00:19:58;95808.56;;;6.42;79.52
24962;BME280;12992;50.884;13.668;2024-03-29T00:22:24;95807.75;;;6.41;78.79
24962;BME280;12992;50.884;13.668;2024-03-29T00:24:49;95806.94;;;6.41;79.53
24962;BME280;12992;50.884;13.668;2024-03-29T00:27:14;95812.88;;;6.43;79.25
24962;BME280;12992;50.884;13.668;2024-03-29T00:29:39;95814.50;;;6.39;79.35
24962;BME280;12992;50.884;13.668;2024-03-29T00:32:05;95811.28;;;6.37;79.57
24962;BME280;12992;50.884;13.668;2024-03-29T00:34:31;95821.28;;;6.41;79.07
24962;BME280;12992;50.884;13.668;2024-03-29T00:36:56;95812.91;;;6.48;78.81
24962;BME280;12992;50.884;13.668;2024-03-29T00:39:21;95819.94;;;6.49;78.39
24962;BME280;12992;50.884;13.668;2024-03-29T00:41:47;95818.34;;;6.58;78.13
24962;BME280;12992;50.884;13.668;2024-03-29T00:44:12;95820.78;;;6.60;77.38
24962;BME280;12992;50.884;13.668;2024-03-29T00:46:38;95822.41;;;6.61;77.83
24962;BME280;12992;50.884;13.668;2024-03-29T00:49:03;95816.47;;;6.64;77.27
24962;BME280;12992;50.884;13.668;2024-03-29T00:51:28;95817.00;;;6.61;77.31
24962;BME280;12992;50.884;13.668;2024-03-29T00:53:54;95825.13;;;6.66;77.31
24962;BME280;12992;50.884;13.668;2024-03-29T00:56:20;95821.59;;;6.65;77.26
24962;BME280;12992;50.884;13.668;2024-03-29T00:58:45;95827.31;;;6.74;76.60
24962;BME280;12992;50.884;13.668;2024-03-29T01:01:11;95830.00;;;6.79;76.14
24962;BME280;12992;50.884;13.668;2024-03-29T01:03:36;95832.19;;;6.77;75.95
24962;BME280;12992;50.884;13.668;2024-03-29T01:06:02;95840.56;;;6.75;75.83
24962;BME280;12992;50.884;13.668;2024-03-29T01:08:27;95841.38;;;6.76;75.82
24962;BME280;12992;50.884;13.668;2024-03-29T01:10:53;95846.53;;;6.82;75.32
24962;BME280;12992;50.884;13.668;2024-03-29T01:13:18;95845.16;;;6.80;75.34
24962;BME280;12992;50.884;13.668;2024-03-29T01:15:44;95850.31;;;6.76;75.72
24962;BME280;12992;50.884;13.668;2024-03-29T01:18:10;95851.13;;;6.72;75.66
24962;BME280;12992;50.884;13.668;2024-03-29T01:20:35;95855.69;;;6.71;75.49
24962;BME280;12992;50.884;13.668;2024-03-29T01:23:01;95862.19;;;6.65;75.47
24962;BME280;12992;50.884;13.668;2024-03-29T01:25:26;95859.19;;;6.57;76.19
24962;BME280;12992;50.884;13.668;2024-03-29T01:27:52;95860.81;;;6.58;76.09
24962;BME280;12992;50.884;13.668;2024-03-29T01:30:18;95857.00;;;6.53;75.89
24962;BME280;12992;50.884;13.668;2024-03-29T01:32:43;95855.94;;;6.55;75.85
24962;BME280;12992;50.884;13.668;2024-03-29T01:35:09;95857.56;;;6.56;75.58
24962;BME280;12992;50.884;13.668;2024-03-29T01:37:34;95862.16;;;6.55;75.48
24962;BME280;12992;50.884;13.668;2024-03-29T01:40:00;95853.22;;;6.49;75.56
24962;BME280;12992;50.884;13.668;2024-03-29T01:42:25;95851.00;;;6.41;75.58
24962;BME280;12992;50.884;13.668;2024-03-29T01:44:50;95847.25;;;6.52;74.62
24962;BME280;12992;50.884;13.668;2024-03-29T01:47:17;95844.56;;;6.47;74.87
24962;BME280;12992;50.884;13.668;2024-03-29T01:49:43;95841.03;;;6.47;74.83
24962;BME280;12992;50.884;13.668;2024-03-29T01:52:09;95837.81;;;6.60;74.06
24962;BME280;12992;50.884;13.668;2024-03-29T01:54:34;95840.28;;;6.67;73.53
24962;BME280;12992;50.884;13.668;2024-03-29T01:57:00;95837.59;;;6.77;72.93
24962;BME280;12992;50.884;13.668;2024-03-29T01:59:25;95837.59;;;6.77;72.80
24962;BME280;12992;50.884;13.668;2024-03-29T02:01:51;95840.81;;;6.79;72.43
24962;BME280;12992;50.884;13.668;2024-03-29T02:04:17;95850.56;;;6.75;72.64
24962;BME280;12992;50.884;13.668;2024-03-29T02:06:43;95846.25;;;6.79;72.33
24962;BME280;12992;50.884;13.668;2024-03-29T02:09:08;95844.09;;;6.81;72.36
24962;BME280;12992;50.884;13.668;2024-03-29T02:11:34;95832.97;;;6.77;71.58
24962;BME280;12992;50.884;13.668;2024-03-29T02:14:00;95840.84;;;6.74;71.60
24962;BME280;12992;50.884;13.668;2024-03-29T02:16:25;95825.94;;;6.76;71.88
24962;BME280;12992;50.884;13.668;2024-03-29T02:18:51;95824.06;;;6.77;71.07
24962;BME280;12992;50.884;13.668;2024-03-29T02:21:16;95821.66;;;6.80;70.82
24962;BME280;12992;50.884;13.668;2024-03-29T02:23:43;95819.19;;;6.79;70.70
24962;BME280;12992;50.884;13.668;2024-03-29T02:26:11;95820.53;;;6.71;71.23
24962;BME280;12992;50.884;13.668;2024-03-29T02:28:36;95814.31;;;6.66;70.55
24962;BME280;12992;50.884;13.668;2024-03-29T02:31:01;95816.75;;;6.67;70.41
24962;BME280;12992;50.884;13.668;2024-03-29T02:33:28;95805.09;;;6.67;70.59
24962;BME280;12992;50.884;13.668;2024-03-29T02:35:53;95817.00;;;6.71;70.32
24962;BME280;12992;50.884;13.668;2024-03-29T02:38:18;95817.81;;;6.71;69.86
24962;BME280;12992;50.884;13.668;2024-03-29T02:40:44;95808.88;;;6.71;70.17
24962;BME280;12992;50.884;13.668;2024-03-29T02:43:09;95823.50;;;6.70;70.23
24962;BME280;12992;50.884;13.668;2024-03-29T02:45:34;95824.59;;;6.69;69.73
24962;BME280;12992;50.884;13.668;2024-03-29T02:48:00;95826.47;;;6.63;69.53
24962;BME280;12992;50.884;13.668;2024-03-29T02:50:25;95830.50;;;6.61;69.78
24962;BME280;12992;50.884;13.668;2024-03-29T02:52:50;95837.81;;;6.60;70.39
24962;BME280;12992;50.884;13.668;2024-03-29T02:55:16;95846.75;;;6.56;69.90
24962;BME280;12992;50.884;13.668;2024-03-29T02:57:41;95847.81;;;6.55;70.00
24962;BME280;12992;50.884;13.668;2024-03-29T03:00:07;95849.16;;;6.52;70.25
24962;BME280;12992;50.884;13.668;2024-03-29T03:02:37;95849.16;;;6.47;70.21
24962;BME280;12992;50.884;13.668;2024-03-29T03:05:03;95853.75;;;6.46;70.66
24962;BME280;12992;50.884;13.668;2024-03-29T03:07:28;95851.81;;;6.42;71.02
24962;BME280;12992;50.884;13.668;2024-03-29T03:10:12;95861.56;;;6.38;71.17
24962;BME280;12992;50.884;13.668;2024-03-29T03:12:56;95864.56;;;6.46;70.82
24962;BME280;12992;50.884;13.668;2024-03-29T03:15:21;95861.59;;;6.48;70.71
24962;BME280;12992;50.884;13.668;2024-03-29T03:17:46;95860.78;;;6.52;70.45
24962;BME280;12992;50.884;13.668;2024-03-29T03:20:12;95869.47;;;6.60;70.24
24962;BME280;12992;50.884;13.668;2024-03-29T03:22:38;95865.94;;;6.59;70.12
24962;BME280;12992;50.884;13.668;2024-03-29T03:25:04;95865.13;;;6.59;69.95
24962;BME280;12992;50.884;13.668;2024-03-29T03:27:30;95879.22;;;6.71;69.94
24962;BME280;12992;50.884;13.668;2024-03-29T03:29:55;95867.34;;;6.72;69.78
24962;BME280;12992;50.884;13.668;2024-03-29T03:32:20;95855.44;;;6.73;69.58
24962;BME280;12992;50.884;13.668;2024-03-29T03:34:46;95865.44;;;6.72;69.58
24962;BME280;12992;50.884;13.668;2024-03-29T03:37:11;95846.25;;;6.74;69.61
24962;BME280;12992;50.884;13.668;2024-03-29T03:39:37;95843.53;;;6.74;69.44
24962;BME280;12992;50.884;13.668;2024-03-29T03:42:03;95830.00;;;6.79;69.63
24962;BME280;12992;50.884;13.668;2024-03-29T03:44:28;95823.28;;;6.81;68.85
24962;BME280;12992;50.884;13.668;2024-03-29T03:46:53;95827.06;;;6.80;69.36
24962;BME280;12992;50.884;13.668;2024-03-29T03:49:19;95839.75;;;6.80;69.11
24962;BME280;12992;50.884;13.668;2024-03-29T03:51:44;95858.69;;;6.80;69.02
24962;BME280;12992;50.884;13.668;2024-03-29T03:54:09;95862.22;;;6.75;69.52
24962;BME280;12992;50.884;13.668;2024-03-29T03:56:35;95861.94;;;6.72;70.03
24962;BME280;12992;50.884;13.668;2024-03-29T03:59:00;95858.13;;;6.68;69.96
24962;BME280;12992;50.884;13.668;2024-03-29T04:01:25;95844.31;;;6.69;70.50
24962;BME280;12992;50.884;13.668;2024-03-29T04:03:51;95848.66;;;6.65;70.50
24962;BME280;12992;50.884;13.668;2024-03-29T04:06:16;95846.78;;;6.66;70.28
24962;BME280;12992;50.884;13.668;2024-03-29T04:08:44;95849.47;;;6.66;70.43
24962;BME280;12992;50.884;13.668;2024-03-29T04:11:09;95855.41;;;6.68;70.81
24962;BME280;12992;50.884;13.668;2024-03-29T04:13:35;95847.56;;;6.66;70.82
24962;BME280;12992;50.884;13.668;2024-03-29T04:16:05;95854.34;;;6.69;70.61
24962;BME280;12992;50.884;13.668;2024-03-29T04:18:31;95848.13;;;6.68;70.84
24962;BME280;12992;50.884;13.668;2024-03-29T04:20:58;95847.56;;;6.66;71.04
24962;BME280;12992;50.884;13.668;2024-03-29T04:23:23;95843.53;;;6.69;71.11
24962;BME280;12992;50.884;13.668;2024-03-29T04:25:55;95833.50;;;6.69;70.84
24962;BME280;12992;50.884;13.668;2024-03-29T04:28:20;95842.44;;;6.70;70.97
24962;BME280;12992;50.884;13.668;2024-03-29T04:30:53;95838.13;;;6.74;70.69
24962;BME280;12992;50.884;13.668;2024-03-29T04:33:19;95843.28;;;6.75;70.25
24962;BME280;12992;50.884;13.668;2024-03-29T04:36:02;95837.84;;;6.75;70.36
24962;BME280;12992;50.884;13.668;2024-03-29T04:38:28;95830.56;;;6.76;70.45
24962;BME280;12992;50.884;13.668;2024-03-29T04:40:55;95827.06;;;6.80;70.67
24962;BME280;12992;50.884;13.668;2024-03-29T04:43:25;95830.56;;;6.86;69.91
24962;BME280;12992;50.884;13.668;2024-03-29T04:46:01;95815.41;;;6.95;69.72
24962;BME280;12992;50.884;13.668;2024-03-29T04:48:27;95813.00;;;7.04;69.55
24962;BME280;12992;50.884;13.668;2024-03-29T04:50:52;95820.56;;;7.12;69.45
24962;BME280;12992;50.884;13.668;2024-03-29T04:53:17;95807.84;;;7.23;68.80
24962;BME280;12992;50.884;13.668;2024-03-29T04:55:42;95813.28;;;7.28;68.69
24962;BME280;12992;50.884;13.668;2024-03-29T04:58:10;95807.31;;;7.36;68.48
24962;BME280;12992;50.884;13.668;2024-03-29T05:00:35;95816.22;;;7.47;67.76
24962;BME280;12992;50.884;13.668;2024-03-29T05:03:00;95810.53;;;7.53;67.38
24962;BME280;12992;50.884;13.668;2024-03-29T05:05:26;95819.44;;;7.64;67.88
24962;BME280;12992;50.884;13.668;2024-03-29T05:07:51;95809.97;;;7.66;67.25
24962;BME280;12992;50.884;13.668;2024-03-29T05:10:16;95798.03;;;7.78;66.80
24962;BME280;12992;50.884;13.668;2024-03-29T05:12:43;95799.34;;;7.85;66.41
24962;BME280;12992;50.884;13.668;2024-03-29T05:15:08;95807.75;;;7.89;66.25
24962;BME280;12992;50.884;13.668;2024-03-29T05:17:34;95804.47;;;7.97;65.79
24962;BME280;12992;50.884;13.668;2024-03-29T05:19:59;95813.66;;;8.06;65.17
24962;BME280;12992;50.884;13.668;2024-03-29T05:22:24;95805.50;;;8.11;65.22
24962;BME280;12992;50.884;13.668;2024-03-29T05:24:53;95796.53;;;8.16;64.69
24962;BME280;12992;50.884;13.668;2024-03-29T05:27:19;95803.31;;;8.18;64.57
24962;BME280;12992;50.884;13.668;2024-03-29T05:29:44;95808.72;;;8.18;64.80
24962;BME280;12992;50.884;13.668;2024-03-29T05:32:09;95800.03;;;8.21;64.63
24962;BME280;12992;50.884;13.668;2024-03-29T05:34:35;95804.63;;;8.26;63.94
24962;BME280;12992;50.884;13.668;2024-03-29T05:37:00;95791.88;;;8.32;64.06
24962;BME280;12992;50.884;13.668;2024-03-29T05:39:25;95795.09;;;8.34;63.96
24962;BME280;12992;50.884;13.668;2024-03-29T05:41:51;95798.38;;;8.36;63.86
24962;BME280;12992;50.884;13.668;2024-03-29T05:44:16;95792.94;;;8.36;63.64
24962;BME280;12992;50.884;13.668;2024-03-29T05:46:42;95800.81;;;8.37;63.68
24962;BME280;12992;50.884;13.668;2024-03-29T05:49:07;95791.03;;;8.41;63.84
24962;BME280;12992;50.884;13.668;2024-03-29T05:51:33;95805.94;;;8.44;63.57
24962;BME280;12992;50.884;13.668;2024-03-29T05:54:01;95798.06;;;8.42;64.03
24962;BME280;12992;50.884;13.668;2024-03-29T05:56:28;95808.06;;;8.47;63.82
24962;BME280;12992;50.884;13.668;2024-03-29T05:58:54;95808.63;;;8.44;63.63
24962;BME280;12992;50.884;13.668;2024-03-29T06:01:19;95810.81;;;8.42;63.96
24962;BME280;12992;50.884;13.668;2024-03-29T06:03:44;95820.34;;;8.39;64.49
24962;BME280;12992;50.884;13.668;2024-03-29T06:06:10;95826.31;;;8.36;64.63
24962;BME280;12992;50.884;13.668;2024-03-29T06:08:42;95813.81;;;8.30;65.28
24962;BME280;12992;50.884;13.668;2024-03-29T06:11:07;95829.56;;;8.28;65.26
24962;BME280;12992;50.884;13.668;2024-03-29T06:13:33;95824.41;;;8.32;65.63
24962;BME280;12992;50.884;13.668;2024-03-29T06:16:17;95827.66;;;8.34;65.53
24962;BME280;12992;50.884;13.668;2024-03-29T06:19:01;95830.91;;;8.41;65.54
24962;BME280;12992;50.884;13.668;2024-03-29T06:21:26;95828.72;;;8.38;65.90
24962;BME280;12992;50.884;13.668;2024-03-29T06:23:52;95830.34;;;8.44;65.64
24962;BME280;12992;50.884;13.668;2024-03-29T06:26:17;95834.66;;;8.45;65.31
24962;BME280;12992;50.884;13.668;2024-03-29T06:28:43;95847.94;;;8.46;65.23
24962;BME280;12992;50.884;13.668;2024-03-29T06:31:08;95849.34;;;8.44;65.28
24962;BME280;12992;50.884;13.668;2024-03-29T06:33:34;95865.88;;;8.42;65.19
24962;BME280;12992;50.884;13.668;2024-03-29T06:35:59;95868.31;;;8.39;65.20
24962;BME280;12992;50.884;13.668;2024-03-29T06:38:24;95861.28;;;8.38;65.72
24962;BME280;12992;50.884;13.668;2024-03-29T06:40:49;95875.13;;;8.36;66.05
24962;BME280;12992;50.884;13.668;2024-03-29T06:43:15;95869.16;;;8.39;65.95
24962;BME280;12992;50.884;13.668;2024-03-29T06:45:41;95871.03;;;8.44;66.05
24962;BME280;12992;50.884;13.668;2024-03-29T06:48:08;95872.13;;;8.43;65.67
24962;BME280;12992;50.884;13.668;2024-03-29T06:50:33;95877.25;;;8.49;65.38
24962;BME280;12992;50.884;13.668;2024-03-29T06:52:59;95866.91;;;8.57;65.73
24962;BME280;12992;50.884;13.668;2024-03-29T06:55:24;95855.78;;;8.58;65.69
24962;BME280;12992;50.884;13.668;2024-03-29T06:57:49;95871.50;;;8.61;65.42
24962;BME280;12992;50.884;13.668;2024-03-29T07:00:15;95856.03;;;8.62;65.04
24962;BME280;12992;50.884;13.668;2024-03-29T07:02:40;95843.00;;;8.64;64.77
24962;BME280;12992;50.884;13.668;2024-03-29T07:05:05;95844.31;;;8.71;65.31
24962;BME280;12992;50.884;13.668;2024-03-29T07:07:33;95842.59;;;8.86;65.06
24962;BME280;12992;50.884;13.668;2024-03-29T07:09:58;95848.53;;;8.93;64.24
24962;BME280;12992;50.884;13.668;2024-03-29T07:12:23;95853.31;;;9.06;64.52
24962;BME280;12992;50.884;13.668;2024-03-29T07:14:48;95854.41;;;9.10;63.62
24962;BME280;12992;50.884;13.668;2024-03-29T07:17:14;95850.25;;;9.18;63.23
24962;BME280;12992;50.884;13.668;2024-03-29T07:19:39;95865.44;;;9.19;63.21
24962;BME280;12992;50.884;13.668;2024-03-29T07:22:04;95848.09;;;9.20;63.67
24962;BME280;12992;50.884;13.668;2024-03-29T07:24:30;95852.38;;;9.26;63.08
24962;BME280;12992;50.884;13.668;2024-03-29T07:26:55;95860.50;;;9.31;62.30
24962;BME280;12992;50.884;13.668;2024-03-29T07:29:20;95847.94;;;9.35;61.32
24962;BME280;12992;50.884;13.668;2024-03-29T07:31:46;95854.16;;;9.41;60.58
24962;BME280;12992;50.884;13.668;2024-03-29T07:34:11;95850.56;;;9.45;60.45
24962;BME280;12992;50.884;13.668;2024-03-29T07:36:37;95845.91;;;9.56;60.21
24962;BME280;12992;50.884;13.668;2024-03-29T07:39:03;95846.09;;;9.64;59.02
24962;BME280;12992;50.884;13.668;2024-03-29T07:41:29;95845.19;;;9.74;59.00
24962;BME280;12992;50.884;13.668;2024-03-29T07:43:56;95851.31;;;9.85;58.43
24962;BME280;12992;50.884;13.668;2024-03-29T07:46:27;95831.88;;;9.97;57.52
24962;BME280;12992;50.884;13.668;2024-03-29T07:48:52;95843.75;;;10.06;57.48
24962;BME280;12992;50.884;13.668;2024-03-29T07:51:17;95828.72;;;10.13;56.18
24962;BME280;12992;50.884;13.668;2024-03-29T07:53:43;95837.03;;;10.27;56.57
24962;BME280;12992;50.884;13.668;2024-03-29T07:56:08;95849.63;;;10.42;56.42
24962;BME280;12992;50.884;13.668;2024-03-29T07:58:33;95851.97;;;10.54;55.89
24962;BME280;12992;50.884;13.668;2024-03-29T08:00:59;95855.34;;;10.64;55.61
24962;BME280;12992;50.884;13.668;2024-03-29T08:03:24;95855.47;;;10.78;53.43
24962;BME280;12992;50.884;13.668;2024-03-29T08:05:57;95860.75;;;10.88;53.41
24962;BME280;12992;50.884;13.668;2024-03-29T08:08:22;95845.22;;;11.07;52.51
24962;BME280;12992;50.884;13.668;2024-03-29T08:10:50;95857.59;;;11.19;51.72
24962;BME280;12992;50.884;13.668;2024-03-29T08:13:15;95859.66;;;11.27;49.99
24962;BME280;12992;50.884;13.668;2024-03-29T08:15:42;95879.84;;;11.26;50.21
24962;BME280;12992;50.884;13.668;2024-03-29T08:18:08;95901.19;;;11.19;50.91
24962;BME280;12992;50.884;13.668;2024-03-29T08:20:33;95902.28;;;10.99;51.66
24962;BME280;12992;50.884;13.668;2024-03-29T08:22:59;95913.53;;;10.92;51.37
24962;BME280;12992;50.884;13.668;2024-03-29T08:25:24;95931.28;;;10.90;51.81
24962;BME280;12992;50.884;13.668;2024-03-29T08:27:52;95921.88;;;10.77;53.38
24962;BME280;12992;50.884;13.668;2024-03-29T08:30:26;95935.44;;;10.82;53.48
24962;BME280;12992;50.884;13.668;2024-03-29T08:32:52;95923.19;;;11.03;52.88
24962;BME280;12992;50.884;13.668;2024-03-29T08:35:18;95935.28;;;11.16;53.47
24962;BME280;12992;50.884;13.668;2024-03-29T08:37:44;95921.47;;;11.31;51.30
24962;BME280;12992;50.884;13.668;2024-03-29T08:40:10;95907.53;;;11.33;51.15
24962;BME280;12992;50.884;13.668;2024-03-29T08:42:35;95910.78;;;11.35;51.55
24962;BME280;12992;50.884;13.668;2024-03-29T08:45:03;95903.81;;;11.61;50.61
24962;BME280;12992;50.884;13.668;2024-03-29T08:47:31;95911.78;;;11.77;50.55
24962;BME280;12992;50.884;13.668;2024-03-29T08:49:56;95907.78;;;11.88;49.44
24962;BME280;12992;50.884;13.668;2024-03-29T08:52:22;95895.75;;;11.89;49.39
24962;BME280;12992;50.884;13.668;2024-03-29T08:54:47;95895.69;;;11.94;49.36
24962;BME280;12992;50.884;13.668;2024-03-29T08:57:13;95885.06;;;11.93;48.61
24962;BME280;12992;50.884;13.668;2024-03-29T08:59:38;95884.22;;;12.25;48.73
24962;BME280;12992;50.884;13.668;2024-03-29T09:02:04;95848.13;;;12.28;47.47
24962;BME280;12992;50.884;13.668;2024-03-29T09:04:31;95853.63;;;12.55;46.55
24962;BME280;12992;50.884;13.668;2024-03-29T09:06:59;95859.91;;;13.05;46.93
24962;BME280;12992;50.884;13.668;2024-03-29T09:09:24;95852.31;;;13.52;45.59
24962;BME280;12992;50.884;13.668;2024-03-29T09:11:49;95852.78;;;13.99;46.44
24962;BME280;12992;50.884;13.668;2024-03-29T09:14:15;95856.94;;;14.28;45.18
24962;BME280;12992;50.884;13.668;2024-03-29T09:16:41;95837.00;;;13.74;45.36
24962;BME280;12992;50.884;13.668;2024-03-29T09:19:06;95848.50;;;13.84;46.75
24962;BME280;12992;50.884;13.668;2024-03-29T09:21:32;95839.09;;;13.99;45.30
24962;BME280;12992;50.884;13.668;2024-03-29T09:23:57;95835.00;;;13.66;45.55
24962;BME280;12992;50.884;13.668;2024-03-29T09:26:23;95834.19;;;13.43;45.33
24962;BME280;12992;50.884;13.668;2024-03-29T09:28:48;95830.56;;;14.01;45.06
24962;BME280;12992;50.884;13.668;2024-03-29T09:31:13;95821.94;;;14.16;45.40
24962;BME280;12992;50.884;13.668;2024-03-29T09:33:39;95810.69;;;14.17;45.10
24962;BME280;12992;50.884;13.668;2024-03-29T09:36:04;95815.47;;;14.12;43.94
24962;BME280;12992;50.884;13.668;2024-03-29T09:38:30;95798.84;;;13.46;44.98
24962;BME280;12992;50.884;13.668;2024-03-29T09:41:16;95803.41;;;14.13;45.93
24962;BME280;12992;50.884;13.668;2024-03-29T09:43:42;95794.16;;;14.31;44.90
24962;BME280;12992;50.884;13.668;2024-03-29T09:46:10;95791.47;;;14.49;44.26
24962;BME280;12992;50.884;13.668;2024-03-29T09:48:37;95773.69;;;14.86;43.97
24962;BME280;12992;50.884;13.668;2024-03-29T09:51:06;95762.88;;;15.07;44.17
24962;BME280;12992;50.884;13.668;2024-03-29T09:53:36;95762.41;;;14.96;43.86
24962;BME280;12992;50.884;13.668;2024-03-29T09:56:06;95750.28;;;14.71;43.62
24962;BME280;12992;50.884;13.668;2024-03-29T09:58:35;95742.06;;;14.62;44.10
24962;BME280;12992;50.884;13.668;2024-03-29T10:01:03;95730.31;;;14.79;44.93
24962;BME280;12992;50.884;13.668;2024-03-29T10:03:29;95747.72;;;14.83;44.37
24962;BME280;12992;50.884;13.668;2024-03-29T10:05:59;95745.78;;;15.27;43.84
24962;BME280;12992;50.884;13.668;2024-03-29T10:08:29;95727.88;;;15.29;43.08
24962;BME280;12992;50.884;13.668;2024-03-29T10:10:57;95733.53;;;15.07;43.28
24962;BME280;12992;50.884;13.668;2024-03-29T10:13:23;95728.19;;;15.28;42.89
24962;BME280;12992;50.884;13.668;2024-03-29T10:15:50;95724.72;;;16.21;43.40
24962;BME280;12992;50.884;13.668;2024-03-29T10:18:17;95695.44;;;15.96;42.28
24962;BME280;12992;50.884;13.668;2024-03-29T10:20:45;95704.94;;;16.36;42.59
24962;BME280;12992;50.884;13.668;2024-03-29T10:23:10;95703.81;;;16.58;42.32
24962;BME280;12992;50.884;13.668;2024-03-29T10:25:35;95690.31;;;16.74;41.21
24962;BME280;12992;50.884;13.668;2024-03-29T10:28:00;95691.59;;;16.97;40.99
24962;BME280;12992;50.884;13.668;2024-03-29T10:30:29;95690.63;;;17.80;40.63
24962;BME280;12992;50.884;13.668;2024-03-29T10:32:57;95676.56;;;17.61;40.31
24962;BME280;12992;50.884;13.668;2024-03-29T10:35:26;95679.81;;;18.61;41.17
24962;BME280;12992;50.884;13.668;2024-03-29T10:37:53;95660.97;;;19.15;38.32
24962;BME280;12992;50.884;13.668;2024-03-29T10:40:21;95667.25;;;19.28;37.61
24962;BME280;12992;50.884;13.668;2024-03-29T10:42:48;95663.97;;;18.58;37.79
24962;BME280;12992;50.884;13.668;2024-03-29T10:45:14;95652.72;;;18.51;37.58
24962;BME280;12992;50.884;13.668;2024-03-29T10:47:41;95674.22;;;18.33;38.75
24962;BME280;12992;50.884;13.668;2024-03-29T10:50:10;95652.13;;;17.60;37.46
24962;BME280;12992;50.884;13.668;2024-03-29T10:52:38;95655.25;;;16.92;38.92
24962;BME280;12992;50.884;13.668;2024-03-29T10:55:04;95657.81;;;16.67;39.54
24962;BME280;12992;50.884;13.668;2024-03-29T10:57:30;95669.44;;;16.23;39.74
24962;BME280;12992;50.884;13.668;2024-03-29T11:05:16;95668.41;;;15.59;42.04
24962;BME280;12992;50.884;13.668;2024-03-29T11:07:42;95683.34;;;15.88;42.24
24962;BME280;12992;50.884;13.668;2024-03-29T11:10:15;95688.69;;;15.84;42.19
24962;BME280;12992;50.884;13.668;2024-03-29T11:12:57;95686.84;;;15.50;42.40
24962;BME280;12992;50.884;13.668;2024-03-29T11:15:28;95684.78;;;15.47;42.93
24962;BME280;12992;50.884;13.668;2024-03-29T11:17:55;95682.66;;;15.44;43.87
24962;BME280;12992;50.884;13.668;2024-03-29T11:20:25;95693.97;;;15.43;43.73
24962;BME280;12992;50.884;13.668;2024-03-29T11:23:01;95686.59;;;15.09;43.96
24962;BME280;12992;50.884;13.668;2024-03-29T11:25:48;95710.63;;;15.20;45.03
24962;BME280;12992;50.884;13.668;2024-03-29T11:28:21;95724.81;;;15.31;45.13
24962;BME280;12992;50.884;13.668;2024-03-29T11:30:49;95742.53;;;15.34;46.14
24962;BME280;12992;50.884;13.668;2024-03-29T11:36:09;95741.59;;;15.21;45.93
24962;BME280;12992;50.884;13.668;2024-03-29T11:38:36;95706.94;;;14.90;45.60
24962;BME280;12992;50.884;13.668;2024-03-29T11:41:16;95716.94;;;14.95;45.50
24962;BME280;12992;50.884;13.668;2024-03-29T11:43:41;95728.03;;;15.33;45.28
24962;BME280;12992;50.884;13.668;2024-03-29T11:46:10;95715.56;;;15.44;44.78
24962;BME280;12992;50.884;13.668;2024-03-29T11:48:36;95715.44;;;15.32;44.51
24962;BME280;12992;50.884;13.668;2024-03-29T11:51:03;95722.41;;;15.29;44.53
24962;BME280;12992;50.884;13.668;2024-03-29T11:53:30;95724.97;;;15.26;44.74
24962;BME280;12992;50.884;13.668;2024-03-29T11:55:59;95715.31;;;15.28;44.38
24962;BME280;12992;50.884;13.668;2024-03-29T11:58:26;95742.88;;;15.32;45.70
24962;BME280;12992;50.884;13.668;2024-03-29T12:00:53;95735.78;;;15.31;45.18
24962;BME280;12992;50.884;13.668;2024-03-29T12:03:20;95731.25;;;15.35;44.78
24962;BME280;12992;50.884;13.668;2024-03-29T12:05:47;95740.63;;;15.17;45.30
24962;BME280;12992;50.884;13.668;2024-03-29T12:08:13;95752.22;;;14.62;48.91
24962;BME280;12992;50.884;13.668;2024-03-29T12:10:39;95770.97;;;14.37;49.58
24962;BME280;12992;50.884;13.668;2024-03-29T12:13:08;95767.06;;;14.30;51.12
24962;BME280;12992;50.884;13.668;2024-03-29T12:15:33;95775.94;;;14.27;51.23
24962;BME280;12992;50.884;13.668;2024-03-29T12:18:04;95776.97;;;14.48;54.26
24962;BME280;12992;50.884;13.668;2024-03-29T12:20:37;95786.38;;;14.64;55.81
24962;BME280;12992;50.884;13.668;2024-03-29T12:23:05;95795.09;;;14.75;54.50
24962;BME280;12992;50.884;13.668;2024-03-29T12:25:32;95770.28;;;14.80;50.22
24962;BME280;12992;50.884;13.668;2024-03-29T12:27:59;95770.63;;;15.05;50.42
24962;BME280;12992;50.884;13.668;2024-03-29T12:30:24;95771.91;;;15.33;49.57
24962;BME280;12992;50.884;13.668;2024-03-29T12:33:03;95770.13;;;15.63;49.12
24962;BME280;12992;50.884;13.668;2024-03-29T12:35:29;95775.78;;;15.67;48.61
24962;BME280;12992;50.884;13.668;2024-03-29T12:37:58;95774.13;;;15.83;47.86
24962;BME280;12992;50.884;13.668;2024-03-29T12:40:24;95780.91;;;16.70;50.08
24962;BME280;12992;50.884;13.668;2024-03-29T12:42:50;95750.19;;;17.31;46.06
24962;BME280;12992;50.884;13.668;2024-03-29T12:45:19;95766.09;;;18.86;46.17
24962;BME280;12992;50.884;13.668;2024-03-29T12:47:46;95753.84;;;19.64;42.91
24962;BME280;12992;50.884;13.668;2024-03-29T12:50:13;95777.53;;;19.65;45.07
24962;BME280;12992;50.884;13.668;2024-03-29T12:52:44;95786.94;;;19.23;45.24
24962;BME280;12992;50.884;13.668;2024-03-29T12:55:09;95794.84;;;18.85;46.30
24962;BME280;12992;50.884;13.668;2024-03-29T12:57:38;95774.91;;;18.18;44.98
24962;BME280;12992;50.884;13.668;2024-03-29T13:00:06;95788.25;;;17.83;46.07